Time;durP1;ratioP1;P1;durP2;ratioP2;P2;SDS_P1;SDS_P2;PMS_P1;PMS_P2;Temp;Humidity;BMP_temperature;BMP_pressure;BME280_temperature;BME280_humidity;BME280_pressure;Samples;Min_cycle;Max_cycle;Signal;HPM_P1;HPM_P2
2021/05/24 00:00:42;;;;;;;8.88;3.83;;;;;;;;;;8323228;28;20047;-68
2021/05/24 00:04:47;;;;;;;8.98;4.03;;;;;;;;;;8305611;28;20342;-68
2021/05/24 00:08:53;;;;;;;7.05;4.40;;;;;;;;;;8323639;28;20492;-69
2021/05/24 00:13:01;;;;;;;8.50;4.18;;;;;;;;;;8322892;28;20070;-68
2021/05/24 00:17:07;;;;;;;8.25;4.55;;;;;;;;;;8305273;28;20469;-68
2021/05/24 00:21:12;;;;;;;7.65;4.18;;;;;;;;;;8322636;28;20379;-71
2021/05/24 00:25:17;;;;;;;10.02;4.63;;;;;;;;;;8326006;28;20328;-68
2021/05/24 00:29:27;;;;;;;8.30;4.25;;;;;;;;;;8322807;28;20397;-69
2021/05/24 00:33:39;;;;;;;6.53;4.15;;;;;;;;;;8322440;28;20052;-69
2021/05/24 00:37:44;;;;;;;8.02;4.78;;;;;;;;;;8323208;28;20472;-68
2021/05/24 00:41:49;;;;;;;8.55;4.70;;;;;;;;;;8322459;28;20142;-68
2021/05/24 00:45:54;;;;;;;8.25;4.50;;;;;;;;;;8289864;28;20074;-69
2021/05/24 00:49:59;;;;;;;7.28;4.32;;;;;;;;;;8304740;28;20390;-69
2021/05/24 00:54:04;;;;;;;12.30;6.22;;;;;;;;;;8305515;28;20398;-70
2021/05/24 00:58:09;;;;;;;10.57;5.05;;;;;;;;;;8322061;28;20383;-68
2021/05/24 01:02:14;;;;;;;7.80;4.47;;;;;;;;;;8328612;28;20497;-69
2021/05/24 01:06:21;;;;;;;11.30;4.80;;;;;;;;;;8310699;28;20470;-69
2021/05/24 01:10:26;;;;;;;13.52;6.10;;;;;;;;;;8327808;28;20352;-68
2021/05/24 01:14:38;;;;;;;11.73;5.03;;;;;;;;;;8330108;28;20451;-67
2021/05/24 01:18:44;;;;;;;8.18;4.15;;;;;;;;;;8328929;28;20458;-68
2021/05/24 01:22:57;;;;;;;9.25;4.53;;;;;;;;;;8328756;28;20486;-69
2021/05/24 01:27:03;;;;;;;8.18;4.82;;;;;;;;;;8327509;28;20048;-69
2021/05/24 01:31:08;;;;;;;9.68;5.07;;;;;;;;;;8329330;28;20074;-68
2021/05/24 01:35:13;;;;;;;10.65;4.53;;;;;;;;;;8327689;28;20486;-68
2021/05/24 01:39:19;;;;;;;6.45;4.07;;;;;;;;;;8327185;28;20493;-69
2021/05/24 01:43:28;;;;;;;8.50;4.63;;;;;;;;;;8327358;28;20390;-69
2021/05/24 01:47:34;;;;;;;12.65;6.05;;;;;;;;;;8327559;28;20395;-68
2021/05/24 01:51:39;;;;;;;10.20;5.13;;;;;;;;;;8327404;28;20467;-68
2021/05/24 01:55:44;;;;;;;8.40;4.55;;;;;;;;;;8325962;28;20397;-68
2021/05/24 01:59:50;;;;;;;12.65;5.30;;;;;;;;;;8328384;28;20431;-68
2021/05/24 02:03:55;;;;;;;10.07;4.95;;;;;;;;;;8327180;28;20078;-69
2021/05/24 02:08:00;;;;;;;9.20;5.03;;;;;;;;;;8308786;28;20370;-68
2021/05/24 02:12:04;;;;;;;10.07;4.57;;;;;;;;;;8325378;28;20423;-68
2021/05/24 02:16:11;;;;;;;11.45;5.70;;;;;;;;;;8327038;28;20478;-68
2021/05/24 02:20:18;;;;;;;9.70;4.55;;;;;;;;;;8325640;28;20391;-69
2021/05/24 02:24:23;;;;;;;7.57;4.30;;;;;;;;;;8326692;28;20075;-69
2021/05/24 02:28:27;;;;;;;12.40;5.43;;;;;;;;;;8325782;28;20356;-69
2021/05/24 02:32:32;;;;;;;7.82;4.78;;;;;;;;;;8326095;28;20482;-68
2021/05/24 02:36:37;;;;;;;10.00;4.80;;;;;;;;;;8325947;28;20458;-68
2021/05/24 02:40:42;;;;;;;12.40;4.60;;;;;;;;;;8324780;28;20048;-68
2021/05/24 02:44:48;;;;;;;10.63;5.00;;;;;;;;;;8324782;28;20403;-67
2021/05/24 02:48:53;;;;;;;10.35;5.00;;;;;;;;;;8325331;28;20501;-68
2021/05/24 02:52:58;;;;;;;12.32;5.40;;;;;;;;;;8324696;28;20482;-70
2021/05/24 02:57:03;;;;;;;11.68;5.20;;;;;;;;;;8308377;28;20462;-67
2021/05/24 03:01:08;;;;;;;15.02;5.93;;;;;;;;;;8325307;28;20486;-69
2021/05/24 03:05:22;;;;;;;14.85;5.72;;;;;;;;;;8326594;28;20471;-69
2021/05/24 03:09:27;;;;;;;9.20;5.03;;;;;;;;;;8324037;28;20391;-69
2021/05/24 03:13:31;;;;;;;9.88;5.72;;;;;;;;;;8325293;28;20056;-68
2021/05/24 03:17:37;;;;;;;11.32;5.03;;;;;;;;;;8324713;28;20379;-69
2021/05/24 03:21:44;;;;;;;11.05;5.43;;;;;;;;;;8323919;28;20078;-68
2021/05/24 03:25:48;;;;;;;9.93;5.20;;;;;;;;;;8326031;28;20370;-69
2021/05/24 03:29:54;;;;;;;9.02;5.22;;;;;;;;;;8323830;28;20047;-70
2021/05/24 03:33:59;;;;;;;21.42;5.65;;;;;;;;;;8325959;28;20501;-71
2021/05/24 03:38:04;;;;;;;15.02;5.78;;;;;;;;;;8324105;28;20395;-69
2021/05/24 03:42:09;;;;;;;10.00;5.03;;;;;;;;;;8323981;28;20074;-68
2021/05/24 03:46:14;;;;;;;10.30;5.43;;;;;;;;;;8323935;28;20369;-68
2021/05/24 03:50:21;;;;;;;16.05;5.57;;;;;;;;;;8324867;28;20052;-69
2021/05/24 03:54:26;;;;;;;12.35;6.03;;;;;;;;;;8323562;28;20480;-69
2021/05/24 03:58:29;;;;;;;9.57;5.45;;;;;;;;;;8324254;28;20370;-68
2021/05/24 04:02:34;;;;;;;11.50;5.72;;;;;;;;;;8324690;28;20370;-69
2021/05/24 04:06:40;;;;;;;15.90;5.72;;;;;;;;;;8323954;28;20056;-69
2021/05/24 04:10:51;;;;;;;13.80;5.75;;;;;;;;;;8325654;28;20066;-68
2021/05/24 04:14:56;;;;;;;13.75;6.53;;;;;;;;;;8322939;28;20447;-71
2021/05/24 04:19:07;;;;;;;18.33;6.37;;;;;;;;;;8322761;28;20463;-69
2021/05/24 04:23:12;;;;;;;12.52;6.05;;;;;;;;;;8324621;28;20443;-68
2021/05/24 04:27:16;;;;;;;15.70;7.72;;;;;;;;;;8323683;28;20475;-68
2021/05/24 04:31:20;;;;;;;14.63;7.10;;;;;;;;;;8324820;28;20379;-70
2021/05/24 04:35:25;;;;;;;20.35;8.13;;;;;;;;;;8325739;28;20485;-69
2021/05/24 04:39:30;;;;;;;22.67;8.75;;;;;;;;;;8329414;28;20448;-68
2021/05/24 04:43:38;;;;;;;19.10;9.00;;;;;;;;;;8328383;28;20056;-69
2021/05/24 04:47:43;;;;;;;25.10;9.38;;;;;;;;;;8328739;28;20052;-68
2021/05/24 04:51:48;;;;;;;23.10;8.88;;;;;;;;;;8328732;28;20471;-69
2021/05/24 04:55:55;;;;;;;21.65;8.38;;;;;;;;;;8329425;28;20530;-68
2021/05/24 05:00:01;;;;;;;34.90;9.55;;;;;;;;;;8310545;28;20362;-70
2021/05/24 05:04:08;;;;;;;18.00;7.22;;;;;;;;;;8330866;28;20470;-69
2021/05/24 05:08:12;;;;;;;17.75;6.85;;;;;;;;;;8328686;28;20474;-68
2021/05/24 05:12:17;;;;;;;21.63;5.80;;;;;;;;;;8328274;28;20423;-69
2021/05/24 05:16:22;;;;;;;12.20;5.18;;;;;;;;;;8329071;28;20079;-69
2021/05/24 05:20:27;;;;;;;13.05;4.47;;;;;;;;;;8327906;28;20451;-68
2021/05/24 05:24:31;;;;;;;11.07;4.55;;;;;;;;;;8329647;28;20455;-68
2021/05/24 05:28:35;;;;;;;8.85;3.95;;;;;;;;;;8328326;28;20352;-69
2021/05/24 05:32:41;;;;;;;8.75;3.65;;;;;;;;;;8327794;28;20489;-70
2021/05/24 05:36:45;;;;;;;5.70;3.22;;;;;;;;;;8327920;28;20375;-69
2021/05/24 05:40:51;;;;;;;10.10;3.20;;;;;;;;;;8326350;28;20344;-69
2021/05/24 05:44:57;;;;;;;5.60;2.40;;;;;;;;;;8327295;28;20409;-69
2021/05/24 05:49:03;;;;;;;6.70;2.65;;;;;;;;;;8328779;28;20383;-66
2021/05/24 05:53:08;;;;;;;5.55;2.53;;;;;;;;;;8326398;28;20409;-67
2021/05/24 05:57:15;;;;;;;5.63;2.22;;;;;;;;;;8326896;28;20446;-66
2021/05/24 06:01:21;;;;;;;5.55;2.63;;;;;;;;;;8326206;28;20481;-67
2021/05/24 06:05:26;;;;;;;6.13;2.20;;;;;;;;;;8327718;28;20371;-67
2021/05/24 06:09:31;;;;;;;3.88;2.22;;;;;;;;;;8308595;28;20355;-66
2021/05/24 06:13:35;;;;;;;7.55;2.10;;;;;;;;;;8325760;28;20428;-67
2021/05/24 06:17:40;;;;;;;4.88;2.15;;;;;;;;;;8328205;28;20380;-65
2021/05/24 06:21:45;;;;;;;6.13;2.33;;;;;;;;;;8327129;28;20474;-66
2021/05/24 06:25:51;;;;;;;10.02;2.30;;;;;;;;;;8327649;28;20470;-66
2021/05/24 06:29:56;;;;;;;5.03;2.20;;;;;;;;;;8329283;28;20370;-66
2021/05/24 06:34:01;;;;;;;9.50;2.50;;;;;;;;;;8325914;28;20409;-65
2021/05/24 06:38:07;;;;;;;7.47;2.25;;;;;;;;;;8326889;28;20401;-67
2021/05/24 06:42:12;;;;;;;6.38;1.90;;;;;;;;;;8324618;28;20362;-66
2021/05/24 06:46:16;;;;;;;5.85;1.75;;;;;;;;;;8324467;28;20076;-66
2021/05/24 06:50:21;;;;;;;4.63;1.67;;;;;;;;;;8325381;28;20458;-65
2021/05/24 06:54:26;;;;;;;4.10;1.38;;;;;;;;;;8307154;28;20047;-66
2021/05/24 06:58:31;;;;;;;4.82;1.27;;;;;;;;;;8325398;28;20328;-65
2021/05/24 07:02:35;;;;;;;5.03;1.27;;;;;;;;;;8325443;28;20348;-66
2021/05/24 07:06:40;;;;;;;2.90;1.17;;;;;;;;;;8325988;28;20356;-66
2021/05/24 07:10:46;;;;;;;3.83;0.73;;;;;;;;;;8306145;28;20475;-66
2021/05/24 07:14:53;;;;;;;1.42;0.90;;;;;;;;;;8324751;28;20504;-68
2021/05/24 07:18:59;;;;;;;2.40;0.73;;;;;;;;;;8325075;28;20413;-65
2021/05/24 07:23:04;;;;;;;2.42;0.82;;;;;;;;;;8324601;28;20470;-66
2021/05/24 07:27:08;;;;;;;1.05;0.63;;;;;;;;;;8327105;28;20473;-66
2021/05/24 07:31:13;;;;;;;1.95;0.55;;;;;;;;;;8325023;28;20383;-67
2021/05/24 07:35:18;;;;;;;3.03;1.00;;;;;;;;;;8323457;28;20535;-68
2021/05/24 07:39:23;;;;;;;0.77;0.70;;;;;;;;;;8325346;28;20434;-65
2021/05/24 07:43:27;;;;;;;1.20;0.40;;;;;;;;;;8322358;28;20458;-66
2021/05/24 07:47:33;;;;;;;3.05;0.60;;;;;;;;;;8323691;28;20368;-68
2021/05/24 07:51:38;;;;;;;1.60;0.90;;;;;;;;;;8323642;28;20367;-68
2021/05/24 07:55:42;;;;;;;2.13;0.98;;;;;;;;;;8322002;28;20090;-67
2021/05/24 07:59:47;;;;;;;1.77;0.47;;;;;;;;;;8323851;28;20435;-68
2021/05/24 08:03:51;;;;;;;2.35;0.38;;;;;;;;;;8323525;28;20459;-68
2021/05/24 08:07:56;;;;;;;5.50;0.50;;;;;;;;;;8323389;28;20086;-67
2021/05/24 08:12:01;;;;;;;1.75;0.75;;;;;;;;;;8331519;28;20489;-68
2021/05/24 08:16:05;;;;;;;1.65;0.45;;;;;;;;;;8330657;28;20386;-68
2021/05/24 08:20:12;;;;;;;2.97;0.73;;;;;;;;;;8331018;28;20467;-68
2021/05/24 08:24:17;;;;;;;1.27;0.68;;;;;;;;;;8328684;28;20386;-68
2021/05/24 08:28:22;;;;;;;1.48;0.55;;;;;;;;;;8311025;28;20354;-67
2021/05/24 08:32:28;;;;;;;1.58;0.70;;;;;;;;;;8329220;28;20450;-67
2021/05/24 08:36:33;;;;;;;2.75;1.10;;;;;;;;;;8329766;28;20405;-69
2021/05/24 08:40:37;;;;;;;2.40;0.93;;;;;;;;;;8332232;28;20354;-68
2021/05/24 08:44:45;;;;;;;1.05;0.50;;;;;;;;;;8328798;28;20454;-67
2021/05/24 08:48:51;;;;;;;1.40;0.60;;;;;;;;;;8329262;28;20048;-68
2021/05/24 08:52:54;;;;;;;2.05;0.60;;;;;;;;;;8312455;28;20323;-67
2021/05/24 08:56:58;;;;;;;0.47;0.40;;;;;;;;;;8328836;28;20457;-67
2021/05/24 09:01:04;;;;;;;0.63;0.30;;;;;;;;;;8329445;28;20334;-69
2021/05/24 09:05:10;;;;;;;1.08;0.50;;;;;;;;;;8329294;28;20370;-67
2021/05/24 09:09:16;;;;;;;1.27;0.60;;;;;;;;;;8327007;28;20383;-68
2021/05/24 09:13:21;;;;;;;8.60;0.43;;;;;;;;;;8328699;28;20568;-67
2021/05/24 09:17:48;;;;;;;1.13;0.38;;;;;;;;;;8327962;28;20074;-65
2021/05/24 09:22:08;;;;;;;0.68;0.38;;;;;;;;;;8325359;28;20474;-66
2021/05/24 09:26:13;;;;;;;2.88;0.47;;;;;;;;;;8309570;28;20459;-65
2021/05/24 09:30:25;;;;;;;1.27;0.40;;;;;;;;;;8328043;28;20083;-66
2021/05/24 09:34:30;;;;;;;1.02;0.43;;;;;;;;;;8328023;28;20455;-65
2021/05/24 09:38:46;;;;;;;1.10;0.40;;;;;;;;;;8310012;28;20477;-68
2021/05/24 09:42:53;;;;;;;0.60;0.40;;;;;;;;;;8327683;28;20478;-68
2021/05/24 09:46:58;;;;;;;1.42;0.60;;;;;;;;;;8327125;28;20439;-69
2021/05/24 09:51:08;;;;;;;2.53;0.50;;;;;;;;;;8327026;28;20360;-66
2021/05/24 09:55:28;;;;;;;2.35;0.50;;;;;;;;;;8325275;28;20486;-65
2021/05/24 09:59:35;;;;;;;1.65;0.63;;;;;;;;;;8326040;28;20379;-66
2021/05/24 10:03:42;;;;;;;2.25;0.68;;;;;;;;;;8327418;28;20470;-66
2021/05/24 10:07:47;;;;;;;0.60;0.40;;;;;;;;;;8327039;28;20371;-66
2021/05/24 10:11:53;;;;;;;0.47;0.32;;;;;;;;;;8308275;28;20047;-66
2021/05/24 10:16:02;;;;;;;0.50;0.40;;;;;;;;;;8325052;28;20052;-69
2021/05/24 10:20:08;;;;;;;0.85;0.50;;;;;;;;;;8327170;28;20367;-68
2021/05/24 10:24:15;;;;;;;;;;;;;;;;;;8327344;28;20459;-67
2021/05/24 10:28:22;;;;;;;1.52;0.60;;;;;;;;;;8325023;28;20250;-66
2021/05/24 10:33:01;;;;;;;1.58;0.55;;;;;;;;;;8325412;28;20455;-67
2021/05/24 10:37:17;;;;;;;4.75;0.50;;;;;;;;;;8324879;28;20443;-66
2021/05/24 10:41:21;;;;;;;1.67;0.70;;;;;;;;;;8324204;28;20485;-69
2021/05/24 10:45:25;;;;;;;4.95;0.80;;;;;;;;;;8326647;28;20374;-68
2021/05/24 10:49:30;;;;;;;0.93;0.40;;;;;;;;;;8324429;28;20477;-65
2021/05/24 10:53:43;;;;;;;1.95;0.70;;;;;;;;;;8306158;28;20378;-67
2021/05/24 10:58:02;;;;;;;1.30;0.47;;;;;;;;;;8324798;28;20386;-67
2021/05/24 11:02:22;;;;;;;2.88;0.60;;;;;;;;;;8324437;28;20401;-68
2021/05/24 11:06:27;;;;;;;1.85;0.57;;;;;;;;;;8324896;28;20501;-68
2021/05/24 11:10:40;;;;;;;1.63;0.63;;;;;;;;;;8323434;28;20494;-68
2021/05/24 11:15:12;;;;;;;0.60;0.40;;;;;;;;;;8304338;28;20640;-70
2021/05/24 11:19:18;;;;;;;0.55;0.45;;;;;;;;;;8321164;28;20494;-68
2021/05/24 11:23:36;;;;;;;6.45;0.85;;;;;;;;;;8316808;28;20044;-68
2021/05/24 11:28:14;;;;;;;9.18;1.02;;;;;;;;;;8322758;28;20382;-67
2021/05/24 11:32:24;;;;;;;1.02;0.60;;;;;;;;;;8323639;28;20470;-69
2021/05/24 11:36:38;;;;;;;2.28;0.70;;;;;;;;;;8323228;28;20474;-68
2021/05/24 11:40:43;;;;;;;2.20;0.93;;;;;;;;;;8323461;28;20451;-68
2021/05/24 11:44:49;;;;;;;1.13;0.70;;;;;;;;;;8321985;28;20455;-68
2021/05/24 11:48:55;;;;;;;2.53;0.43;;;;;;;;;;8325921;28;20461;-68
2021/05/24 11:53:00;;;;;;;6.32;0.70;;;;;;;;;;8323551;28;20374;-68
2021/05/24 11:57:06;;;;;;;2.88;1.02;;;;;;;;;;8324415;28;20370;-68
2021/05/24 12:01:15;;;;;;;2.28;0.60;;;;;;;;;;8322829;28;20359;-68
2021/05/24 12:05:21;;;;;;;1.35;0.70;;;;;;;;;;8321533;28;20056;-68
2021/05/24 12:09:56;;;;;;;2.38;0.80;;;;;;;;;;8321597;28;20485;-69
2021/05/24 12:14:08;;;;;;;4.55;0.77;;;;;;;;;;8307195;28;20366;-68
2021/05/24 12:18:13;;;;;;;1.60;0.60;;;;;;;;;;8325040;28;20463;-68
2021/05/24 12:22:18;;;;;;;4.43;0.68;;;;;;;;;;8322965;28;20470;-68
2021/05/24 12:26:22;;;;;;;1.30;0.70;;;;;;;;;;8305462;28;20060;-70
2021/05/24 12:30:36;;;;;;;0.98;0.45;;;;;;;;;;8323946;28;20056;-68
2021/05/24 12:34:43;;;;;;;0.95;0.70;;;;;;;;;;8306311;28;20443;-69
2021/05/24 12:38:51;;;;;;;3.72;0.80;;;;;;;;;;8304968;28;20375;-68
2021/05/24 12:42:57;;;;;;;0.88;0.50;;;;;;;;;;8304134;28;20482;-68
2021/05/24 12:47:20;;;;;;;1.15;0.50;;;;;;;;;;8321374;28;20486;-67
2021/05/24 12:51:28;;;;;;;1.58;0.60;;;;;;;;;;8322516;28;20074;-68
2021/05/24 12:55:34;;;;;;;1.80;0.65;;;;;;;;;;8326433;28;20463;-68
2021/05/24 12:59:54;;;;;;;0.63;0.60;;;;;;;;;;8328683;28;20055;-68
2021/05/24 13:04:03;;;;;;;2.17;0.68;;;;;;;;;;8312000;28;20477;-68
2021/05/24 13:08:17;;;;;;;5.25;0.75;;;;;;;;;;8328031;28;20378;-68
2021/05/24 13:12:24;;;;;;;2.53;0.55;;;;;;;;;;8328900;28;20493;-69
2021/05/24 13:16:33;;;;;;;1.15;0.85;;;;;;;;;;8330377;28;20500;-67
2021/05/24 13:20:54;;;;;;;0.88;0.50;;;;;;;;;;8311699;28;20469;-68
2021/05/24 13:25:23;;;;;;;2.10;0.68;;;;;;;;;;8329762;28;20470;-68
2021/05/24 13:29:41;;;;;;;2.03;0.63;;;;;;;;;;8314125;28;20455;-68
2021/05/24 13:33:53;;;;;;;1.58;0.80;;;;;;;;;;8327994;28;20432;-68
2021/05/24 13:38:09;;;;;;;6.28;0.95;;;;;;;;;;8311456;28;20451;-68
2021/05/24 13:42:31;;;;;;;0.93;0.52;;;;;;;;;;8327144;28;20390;-67
2021/05/24 13:46:38;;;;;;;2.55;0.70;;;;;;;;;;8327146;28;20141;-68
2021/05/24 13:50:43;;;;;;;1.67;0.57;;;;;;;;;;8326835;28;20379;-68
2021/05/24 13:54:47;;;;;;;3.65;1.00;;;;;;;;;;8329207;28;20052;-68
2021/05/24 13:58:53;;;;;;;0.90;0.47;;;;;;;;;;8326710;28;20489;-68
2021/05/24 14:02:59;;;;;;;3.17;0.90;;;;;;;;;;8326301;28;20486;-68
2021/05/24 14:07:04;;;;;;;5.10;0.90;;;;;;;;;;8326143;28;20454;-68
2021/05/24 14:11:08;;;;;;;1.35;0.70;;;;;;;;;;8327276;28;20519;-68
2021/05/24 14:15:14;;;;;;;2.40;0.70;;;;;;;;;;8308802;28;20470;-68
2021/05/24 14:19:19;;;;;;;1.27;0.50;;;;;;;;;;8328403;28;20454;-68
2021/05/24 14:23:24;;;;;;;0.63;0.43;;;;;;;;;;8325894;28;20386;-68
2021/05/24 14:27:29;;;;;;;1.88;0.50;;;;;;;;;;8327422;28;20458;-68
2021/05/24 14:31:34;;;;;;;3.55;1.33;;;;;;;;;;8325344;28;20490;-68
2021/05/24 14:35:39;;;;;;;3.15;0.60;;;;;;;;;;8325629;28;20359;-67
2021/05/24 14:39:44;;;;;;;2.47;0.50;;;;;;;;;;8307829;28;20381;-68
2021/05/24 14:43:50;;;;;;;0.90;0.50;;;;;;;;;;8291997;28;20467;-67
2021/05/24 14:47:56;;;;;;;4.22;0.80;;;;;;;;;;8292396;28;20355;-68
2021/05/24 14:52:04;;;;;;;4.20;0.80;;;;;;;;;;8292153;28;20377;-68
2021/05/24 14:56:08;;;;;;;2.53;0.90;;;;;;;;;;8292171;28;20403;-68
2021/05/24 15:00:14;;;;;;;1.17;0.82;;;;;;;;;;8290507;28;20501;-68
2021/05/24 15:04:18;;;;;;;1.70;0.75;;;;;;;;;;8292184;28;20448;-68
2021/05/24 15:08:23;;;;;;;1.58;0.70;;;;;;;;;;8290932;28;20456;-69
2021/05/24 15:12:28;;;;;;;2.38;0.73;;;;;;;;;;8290838;28;20371;-67
2021/05/24 15:16:33;;;;;;;1.60;0.90;;;;;;;;;;8306792;28;20367;-67
2021/05/24 15:20:38;;;;;;;1.73;0.88;;;;;;;;;;8291514;28;20060;-68
2021/05/24 15:24:51;;;;;;;1.60;0.77;;;;;;;;;;8290588;28;20045;-68
2021/05/24 15:28:58;;;;;;;4.47;0.90;;;;;;;;;;8306957;28;20371;-67
2021/05/24 15:33:03;;;;;;;1.80;0.80;;;;;;;;;;8291596;28;20811;-68
2021/05/24 15:37:10;;;;;;;2.70;0.70;;;;;;;;;;8290951;28;20347;-68
2021/05/24 15:41:13;;;;;;;4.95;0.98;;;;;;;;;;8291229;28;20485;-68
2021/05/24 15:45:18;;;;;;;2.00;1.10;;;;;;;;;;8325842;28;20082;-68
2021/05/24 15:49:23;;;;;;;2.72;0.82;;;;;;;;;;8305079;28;20351;-68
2021/05/24 15:53:28;;;;;;;4.50;1.50;;;;;;;;;;8324053;28;20485;-68
2021/05/24 15:57:34;;;;;;;4.35;1.15;;;;;;;;;;8323173;28;20409;-68
2021/05/24 16:01:39;;;;;;;5.45;1.02;;;;;;;;;;8305700;28;20048;-69
2021/05/24 16:05:46;;;;;;;7.47;0.90;;;;;;;;;;8323310;28;20382;-68
2021/05/24 16:09:50;;;;;;;4.35;1.45;;;;;;;;;;8323417;28;20079;-68
2021/05/24 16:13:56;;;;;;;3.58;1.15;;;;;;;;;;8306001;28;20485;-67
2021/05/24 16:18:03;;;;;;;3.08;1.38;;;;;;;;;;8322897;28;20402;-68
2021/05/24 16:22:07;;;;;;;2.50;1.13;;;;;;;;;;8322636;28;20479;-68
2021/05/24 16:26:14;;;;;;;3.20;1.40;;;;;;;;;;8323569;28;20485;-67
2021/05/24 16:30:19;;;;;;;3.72;1.70;;;;;;;;;;8325826;28;20354;-68
2021/05/24 16:34:24;;;;;;;8.85;1.38;;;;;;;;;;8329710;28;20409;-68
2021/05/24 16:38:29;;;;;;;2.42;1.17;;;;;;;;;;8329738;28;20048;-68
2021/05/24 16:42:34;;;;;;;4.72;1.35;;;;;;;;;;8328555;28;20375;-68
2021/05/24 16:46:40;;;;;;;2.28;1.33;;;;;;;;;;8328393;28;20512;-68
2021/05/24 16:50:47;;;;;;;3.45;1.70;;;;;;;;;;8330067;28;20351;-68
2021/05/24 16:54:52;;;;;;;6.20;2.53;;;;;;;;;;8327838;28;20462;-68
2021/05/24 16:58:58;;;;;;;11.82;3.60;;;;;;;;;;8310821;28;20397;-67
2021/05/24 17:03:03;;;;;;;9.02;5.10;;;;;;;;;;8328514;28;20462;-68
2021/05/24 17:07:07;;;;;;;6.07;4.35;;;;;;;;;;8328730;28;20359;-67
2021/05/24 17:11:12;;;;;;;6.25;2.90;;;;;;;;;;8329278;28;20375;-67
2021/05/24 17:15:17;;;;;;;2.63;1.20;;;;;;;;;;8330252;28;20047;-67
2021/05/24 17:19:23;;;;;;;2.53;1.10;;;;;;;;;;8327253;28;20413;-68
2021/05/24 17:23:28;;;;;;;3.42;1.33;;;;;;;;;;8310904;28;20044;-67
2021/05/24 17:27:36;;;;;;;3.83;1.10;;;;;;;;;;8328456;28;20082;-68
2021/05/24 17:31:41;;;;;;;1.10;0.70;;;;;;;;;;8310940;28;20377;-68
2021/05/24 17:35:46;;;;;;;2.67;1.00;;;;;;;;;;8309823;28;20370;-67
2021/05/24 17:39:51;;;;;;;4.30;0.95;;;;;;;;;;8328778;28;20497;-68
2021/05/24 17:43:56;;;;;;;4.32;0.90;;;;;;;;;;8325991;28;20060;-67
2021/05/24 17:48:01;;;;;;;3.60;1.00;;;;;;;;;;8310214;28;20379;-67
2021/05/24 17:52:06;;;;;;;1.42;0.80;;;;;;;;;;8326472;28;20064;-68
2021/05/24 17:56:11;;;;;;;8.40;2.15;;;;;;;;;;8325822;28;20443;-68
2021/05/24 18:00:19;;;;;;;1.65;0.90;;;;;;;;;;8326675;28;20529;-68
2021/05/24 18:04:24;;;;;;;5.25;2.17;;;;;;;;;;8309675;28;20467;-68
2021/05/24 18:08:29;;;;;;;2.92;1.60;;;;;;;;;;8308155;28;20048;-68
2021/05/24 18:12:34;;;;;;;5.15;2.58;;;;;;;;;;8325998;28;20378;-68
2021/05/24 18:16:41;;;;;;;5.75;1.95;;;;;;;;;;8326002;28;20490;-67
2021/05/24 18:20:45;;;;;;;5.07;2.55;;;;;;;;;;8325727;28;20382;-68
2021/05/24 18:24:50;;;;;;;4.35;1.77;;;;;;;;;;8326207;28;20054;-68
2021/05/24 18:28:55;;;;;;;6.32;1.60;;;;;;;;;;8309946;28;20362;-68
2021/05/24 18:33:02;;;;;;;2.40;1.38;;;;;;;;;;8307154;28;20696;-68
2021/05/24 18:37:06;;;;;;;3.70;1.83;;;;;;;;;;8327403;28;20413;-67
2021/05/24 18:41:11;;;;;;;13.45;2.90;;;;;;;;;;8327839;28;20455;-67
2021/05/24 18:45:17;;;;;;;9.48;3.25;;;;;;;;;;8291685;28;20506;-68
2021/05/24 18:49:20;;;;;;;4.63;2.90;;;;;;;;;;8290441;28;20362;-68
2021/05/24 18:53:25;;;;;;;9.52;2.85;;;;;;;;;;8291949;28;20355;-67
2021/05/24 18:57:34;;;;;;;6.43;3.20;;;;;;;;;;8291986;28;20471;-68
2021/05/24 19:01:52;;;;;;;9.05;3.60;;;;;;;;;;8292606;28;20084;-68
2021/05/24 19:06:13;;;;;;;10.00;3.92;;;;;;;;;;8292029;28;20368;-67
2021/05/24 19:10:17;;;;;;;8.38;4.15;;;;;;;;;;8289513;28;20380;-67
2021/05/24 19:14:22;;;;;;;12.30;5.15;;;;;;;;;;8289402;28;20479;-67
2021/05/24 19:18:27;;;;;;;9.05;4.40;;;;;;;;;;8291144;28;20074;-67
2021/05/24 19:22:32;;;;;;;10.18;5.30;;;;;;;;;;8290979;28;20387;-68
2021/05/24 19:26:38;;;;;;;12.35;5.75;;;;;;;;;;8291602;28;20359;-68
2021/05/24 19:30:43;;;;;;;17.42;7.78;;;;;;;;;;8291003;28;20371;-67
2021/05/24 19:34:48;;;;;;;17.08;9.23;;;;;;;;;;8288677;28;20356;-67
2021/05/24 19:38:54;;;;;;;19.80;8.90;;;;;;;;;;8289631;28;20479;-68
2021/05/24 19:42:59;;;;;;;21.38;9.35;;;;;;;;;;8304835;28;20095;-67
2021/05/24 19:47:13;;;;;;;18.60;9.85;;;;;;;;;;8323106;28;20362;-67
2021/05/24 20:27:01;;;;;;;59.80;22.00;;;;;;;;;;8323444;28;20482;-68
2021/05/24 20:31:06;;;;;;;50.95;19.65;;;;;;;;;;8323442;28;20386;-68
2021/05/24 20:35:11;;;;;;;40.92;13.35;;;;;;;;;;8306159;28;20363;-67
2021/05/24 20:39:17;;;;;;;69.25;22.23;;;;;;;;;;8323507;28;20442;-67
2021/05/24 20:43:20;;;;;;;33.17;15.40;;;;;;;;;;8305565;28;20382;-68
2021/05/24 20:47:25;;;;;;;26.55;12.32;;;;;;;;;;8291555;28;20119;-68
2021/05/24 20:51:42;;;;;;;14.75;7.05;;;;;;;;;;8291848;28;20379;-67
2021/05/24 20:55:47;;;;;;;37.60;16.35;;;;;;;;;;8287919;28;20049;-67
2021/05/24 20:59:56;;;;;;;205.50;58.70;;;;;;;;;;8288294;28;20371;-66
2021/05/24 21:04:01;;;;;;;146.20;43.05;;;;;;;;;;8289263;28;20371;-66
2021/05/24 21:08:06;;;;;;;50.13;18.05;;;;;;;;;;8290412;28;20371;-67
2021/05/24 21:12:11;;;;;;;215.88;69.90;;;;;;;;;;8292011;28;20521;-68
2021/05/24 21:16:16;;;;;;;118.38;40.65;;;;;;;;;;8291855;28;20459;-68
2021/05/24 21:20:21;;;;;;;843.78;274.17;;;;;;;;;;8294627;28;20060;-68
2021/05/24 21:24:26;;;;;;;48.03;17.67;;;;;;;;;;8295252;28;20368;-67
2021/05/24 21:28:31;;;;;;;50.55;15.90;;;;;;;;;;8296461;28;20489;-68
2021/05/24 21:32:42;;;;;;;202.82;63.70;;;;;;;;;;8297676;28;20467;-68
2021/05/24 21:36:47;;;;;;;30.83;10.30;;;;;;;;;;8296806;28;20053;-67
2021/05/24 21:40:52;;;;;;;47.05;17.42;;;;;;;;;;8296305;28;20493;-68
2021/05/24 21:44:56;;;;;;;200.05;63.38;;;;;;;;;;8327399;28;20493;-68
2021/05/24 21:49:01;;;;;;;121.03;48.38;;;;;;;;;;8327894;28;20082;-68
2021/05/24 21:53:06;;;;;;;34.75;14.82;;;;;;;;;;8331120;28;20455;-68
2021/05/24 21:57:11;;;;;;;15.27;8.02;;;;;;;;;;8326902;28;20460;-68
2021/05/24 22:01:19;;;;;;;25.02;11.65;;;;;;;;;;8329650;28;20413;-67
2021/05/24 22:05:24;;;;;;;42.67;17.45;;;;;;;;;;8327339;28;20482;-68
2021/05/24 22:09:29;;;;;;;130.85;46.50;;;;;;;;;;8309571;28;20055;-68
2021/05/24 22:13:34;;;;;;;18.50;6.68;;;;;;;;;;8327629;28;20056;-68
2021/05/24 22:17:40;;;;;;;12.80;6.68;;;;;;;;;;8326931;28;20471;-68
2021/05/24 22:21:52;;;;;;;17.42;7.60;;;;;;;;;;8326374;28;20382;-68
2021/05/24 22:25:57;;;;;;;200.23;82.55;;;;;;;;;;8326726;28;20121;-67
2021/05/24 22:30:05;;;;;;;54.88;24.75;;;;;;;;;;8326112;28;20497;-67
2021/05/24 22:34:10;;;;;;;90.93;43.97;;;;;;;;;;8325539;28;20489;-68
2021/05/24 22:38:13;;;;;;;17.40;8.18;;;;;;;;;;8307181;28;20509;-68
2021/05/24 22:42:19;;;;;;;22.23;11.90;;;;;;;;;;8308250;28;20481;-68
2021/05/24 22:46:23;;;;;;;18.48;8.68;;;;;;;;;;8325941;28;20462;-68
2021/05/24 22:50:29;;;;;;;11.27;7.18;;;;;;;;;;8327413;28;20482;-69
2021/05/24 22:54:36;;;;;;;10.77;6.43;;;;;;;;;;8327609;28;20386;-70
2021/05/24 22:58:42;;;;;;;12.88;6.00;;;;;;;;;;8327662;28;20413;-69
2021/05/24 23:02:49;;;;;;;11.55;5.60;;;;;;;;;;8306005;28;20486;-69
2021/05/24 23:06:54;;;;;;;9.60;6.00;;;;;;;;;;8324912;28;20467;-69
2021/05/24 23:11:00;;;;;;;10.48;5.20;;;;;;;;;;8325639;28;20117;-70
2021/05/24 23:15:06;;;;;;;9.35;4.68;;;;;;;;;;8324811;28;20363;-70
2021/05/24 23:19:11;;;;;;;9.70;4.57;;;;;;;;;;8308033;28;20471;-70
2021/05/24 23:23:15;;;;;;;8.10;4.65;;;;;;;;;;8324186;28;20134;-72
2021/05/24 23:27:20;;;;;;;13.48;5.40;;;;;;;;;;8324238;28;20622;-70
2021/05/24 23:31:25;;;;;;;11.10;6.18;;;;;;;;;;8325924;28;20443;-70
2021/05/24 23:35:30;;;;;;;8.60;4.57;;;;;;;;;;8324290;28;20435;-69
2021/05/24 23:39:35;;;;;;;42.42;15.05;;;;;;;;;;8325606;28;20385;-69
2021/05/24 23:43:40;;;;;;;13.40;5.47;;;;;;;;;;8305594;28;20463;-70
2021/05/24 23:47:45;;;;;;;8.30;3.97;;;;;;;;;;8291610;28;20405;-69
2021/05/24 23:51:50;;;;;;;8.93;4.43;;;;;;;;;;8288707;28;20345;-70
2021/05/24 23:55:56;;;;;;;12.98;5.72;;;;;;;;;;8290062;28;20467;-69
